createdAt,value
2019-01-12T00:00:33.715Z,12.90
2019-01-12T00:03:02.820Z,13.62
2019-01-12T00:05:31.971Z,14.28
2019-01-12T00:08:01.046Z,15.75
2019-01-12T00:10:30.255Z,16.85
2019-01-12T00:12:59.453Z,15.78
2019-01-12T00:15:28.626Z,15.53
2019-01-12T00:17:57.784Z,16.87
2019-01-12T00:20:26.918Z,15.55
2019-01-12T00:22:55.993Z,16.25
2019-01-12T00:25:25.254Z,16.62
2019-01-12T00:27:54.385Z,16.67
2019-01-12T00:30:23.528Z,17.02
2019-01-12T00:32:52.754Z,17.70
2019-01-12T00:35:21.919Z,18.05
2019-01-12T00:37:51.092Z,19.77
2019-01-12T00:40:20.238Z,18.15
2019-01-12T00:42:49.327Z,16.23
2019-01-12T00:45:18.475Z,16.10
2019-01-12T00:47:47.612Z,16.85
2019-01-12T00:50:18.681Z,16.87
2019-01-12T00:52:47.809Z,16.52
2019-01-12T00:55:16.945Z,14.58
2019-01-12T00:57:46.040Z,15.55
2019-01-12T01:00:18.119Z,15.70
2019-01-12T01:02:47.267Z,15.53
2019-01-12T01:05:16.509Z,17.10
2019-01-12T01:07:45.668Z,20.65
2019-01-12T01:10:17.908Z,25.30
2019-01-12T01:12:47.044Z,15.93
2019-01-12T01:15:16.240Z,14.25
2019-01-12T01:17:45.448Z,14.40
2019-01-12T01:20:15.235Z,14.25
2019-01-12T01:22:44.408Z,14.93
2019-01-12T01:25:13.491Z,14.43
2019-01-12T01:27:42.623Z,13.65
2019-01-12T01:30:17.095Z,13.70
2019-01-12T01:32:46.271Z,13.25
2019-01-12T01:35:15.389Z,13.35
2019-01-12T01:37:44.575Z,14.25
2019-01-12T01:40:15.723Z,13.75
2019-01-12T01:42:44.852Z,14.47
2019-01-12T01:45:14.743Z,13.70
2019-01-12T01:47:43.886Z,13.05
2019-01-12T01:50:14.348Z,13.38
2019-01-12T01:52:43.524Z,13.35
2019-01-12T01:55:12.647Z,12.60
2019-01-12T01:57:41.838Z,13.75
2019-01-12T02:00:16.204Z,12.53
2019-01-12T02:02:45.374Z,12.70
2019-01-12T02:05:14.501Z,12.00
2019-01-12T02:07:43.683Z,12.18
2019-01-12T02:10:18.964Z,12.47
2019-01-12T02:12:48.093Z,11.68
2019-01-12T02:15:17.392Z,10.80
2019-01-12T02:17:46.491Z,10.25
2019-01-12T02:20:15.639Z,11.05
2019-01-12T02:22:44.818Z,11.03
2019-01-12T02:25:14.212Z,10.38
2019-01-12T02:27:43.364Z,10.05
2019-01-12T02:30:16.063Z,9.88
2019-01-12T02:32:45.151Z,9.43
2019-01-12T02:35:14.285Z,9.78
2019-01-12T02:37:43.429Z,9.63
2019-01-12T02:40:12.595Z,10.00
2019-01-12T02:42:41.790Z,9.60
2019-01-12T02:45:11.082Z,9.68
2019-01-12T02:47:40.221Z,9.53
2019-01-12T02:50:09.443Z,8.95
2019-01-12T02:52:38.590Z,9.10
2019-01-12T02:55:08.936Z,9.65
2019-01-12T02:57:38.375Z,9.43
2019-01-12T03:00:10.204Z,8.98
2019-01-12T03:02:54.883Z,8.68
2019-01-12T03:05:15.142Z,9.70
2019-01-12T03:07:44.350Z,9.60
2019-01-12T03:10:15.024Z,9.38
2019-01-12T03:12:44.156Z,9.25
2019-01-12T03:15:15.211Z,9.18
2019-01-12T03:17:44.341Z,8.45
2019-01-12T03:20:15.143Z,8.38
2019-01-12T03:22:44.340Z,8.60
2019-01-12T03:25:18.694Z,8.55
2019-01-12T03:27:44.307Z,8.85
2019-01-12T03:30:18.408Z,8.88
2019-01-12T03:32:47.490Z,9.10
2019-01-12T03:35:16.611Z,9.10
2019-01-12T03:37:45.730Z,9.68
2019-01-12T03:40:17.892Z,9.20
2019-01-12T03:42:47.034Z,9.55
2019-01-12T03:45:16.883Z,9.78
2019-01-12T03:47:46.045Z,9.55
2019-01-12T03:50:15.167Z,8.85
2019-01-12T03:52:44.268Z,9.58
2019-01-12T03:55:13.447Z,9.15
2019-01-12T03:57:42.531Z,8.20
2019-01-12T04:00:23.624Z,8.20
2019-01-12T04:02:52.747Z,7.35
2019-01-12T04:05:21.859Z,7.35
2019-01-12T04:07:51.001Z,8.38
2019-01-12T04:10:20.097Z,7.60
2019-01-12T04:12:49.184Z,6.97
2019-01-12T04:15:18.391Z,7.12
2019-01-12T04:17:47.516Z,7.28
2019-01-12T04:20:17.749Z,7.05
2019-01-12T04:22:46.836Z,7.40
2019-01-12T04:25:15.980Z,7.28
2019-01-12T04:27:45.153Z,7.30
2019-01-12T04:30:16.529Z,7.35
2019-01-12T04:32:45.636Z,7.67
2019-01-12T04:35:14.754Z,6.85
2019-01-12T04:37:43.851Z,6.70
2019-01-12T04:40:18.246Z,7.75
2019-01-12T04:42:47.397Z,7.72
2019-01-12T04:45:16.474Z,8.28
2019-01-12T04:47:45.642Z,8.60
2019-01-12T04:50:16.855Z,9.55
2019-01-12T04:52:46.053Z,10.32
2019-01-12T04:55:15.300Z,11.05
2019-01-12T04:57:44.346Z,11.53
2019-01-12T05:00:17.982Z,11.30
2019-01-12T05:02:47.178Z,12.10
2019-01-12T05:05:16.444Z,12.05
2019-01-12T05:07:45.514Z,13.10
2019-01-12T05:10:14.810Z,14.10
2019-01-12T05:12:43.994Z,14.43
2019-01-12T05:15:13.711Z,15.13
2019-01-12T05:17:42.848Z,15.63
2019-01-12T05:20:18.445Z,15.58
2019-01-12T05:22:47.725Z,15.98
2019-01-12T05:25:17.037Z,15.15
2019-01-12T05:27:46.226Z,14.83
2019-01-12T05:30:20.305Z,15.05
2019-01-12T05:32:49.457Z,14.55
2019-01-12T05:35:18.617Z,15.25
2019-01-12T05:37:47.787Z,14.45
2019-01-12T05:40:16.888Z,14.30
2019-01-12T05:42:46.126Z,14.28
2019-01-12T05:45:15.226Z,13.78
2019-01-12T05:47:44.403Z,13.25
2019-01-12T05:50:13.960Z,13.18
2019-01-12T05:52:43.103Z,14.18
2019-01-12T05:55:12.202Z,13.45
2019-01-12T05:57:41.370Z,14.05
2019-01-12T06:00:14.745Z,12.30
2019-01-12T06:02:43.855Z,12.70
2019-01-12T06:05:12.972Z,12.63
2019-01-12T06:07:42.002Z,12.05
2019-01-12T06:10:11.124Z,10.98
2019-01-12T06:12:40.208Z,11.45
2019-01-12T06:15:09.499Z,10.40
2019-01-12T06:17:39.697Z,10.25
2019-01-12T06:20:09.795Z,10.53
2019-01-12T06:22:39.126Z,10.03
2019-01-12T06:25:08.357Z,9.18
2019-01-12T06:27:38.446Z,9.20
2019-01-12T06:30:10.588Z,9.03
2019-01-12T06:32:39.835Z,8.80
2019-01-12T06:35:09.028Z,8.98
2019-01-12T06:37:38.260Z,9.10
2019-01-12T06:40:10.138Z,9.60
2019-01-12T06:42:39.281Z,9.60
2019-01-12T06:45:09.919Z,9.30
2019-01-12T06:47:39.031Z,9.75
2019-01-12T06:50:09.403Z,9.10
2019-01-12T06:52:38.665Z,9.85
2019-01-12T06:55:08.937Z,10.35
2019-01-12T06:57:38.095Z,11.15
2019-01-12T07:00:10.561Z,10.58
2019-01-12T07:02:39.645Z,11.10
2019-01-12T07:05:08.791Z,11.10
2019-01-12T07:07:37.897Z,12.82
2019-01-12T07:10:07.882Z,12.95
2019-01-12T07:12:37.298Z,13.83
2019-01-12T07:15:07.455Z,14.68
2019-01-12T07:17:36.624Z,15.55
2019-01-12T07:20:08.202Z,16.12
2019-01-12T07:22:37.351Z,17.20
2019-01-12T07:25:06.448Z,17.62
2019-01-12T07:27:35.552Z,16.85
2019-01-12T07:30:06.301Z,18.90
2019-01-12T07:32:35.443Z,19.90
2019-01-12T07:35:04.507Z,20.37
2019-01-12T07:37:34.013Z,18.92
2019-01-12T07:40:03.234Z,19.77
2019-01-12T07:42:32.376Z,20.55
2019-01-12T07:45:01.399Z,20.25
2019-01-12T07:47:30.599Z,20.55
2019-01-12T07:49:59.637Z,21.05
2019-01-12T07:52:28.726Z,19.45
2019-01-12T07:54:57.798Z,19.40
2019-01-12T07:57:26.923Z,19.20
2019-01-12T07:59:56.044Z,23.55
2019-01-12T08:02:25.138Z,20.50
2019-01-12T08:04:54.189Z,20.50
2019-01-12T08:07:23.320Z,19.73
2019-01-12T08:09:52.436Z,19.82
2019-01-12T08:12:21.488Z,20.75
2019-01-12T08:14:50.569Z,19.60
2019-01-12T08:17:19.716Z,19.57
2019-01-12T08:19:48.787Z,19.67
2019-01-12T08:22:17.839Z,19.42
2019-01-12T08:24:46.911Z,20.00
2019-01-12T08:27:15.953Z,19.17
2019-01-12T08:29:45.006Z,19.42
2019-01-12T08:32:16.419Z,20.82
2019-01-12T08:34:45.513Z,21.42
2019-01-12T08:37:14.654Z,20.10
2019-01-12T08:39:43.759Z,20.60
2019-01-12T08:42:16.763Z,20.40
2019-01-12T08:44:45.944Z,20.92
2019-01-12T08:47:15.067Z,19.57
2019-01-12T08:49:45.627Z,20.20
2019-01-12T08:52:14.738Z,20.90
2019-01-12T08:54:43.799Z,22.48
2019-01-12T08:57:12.945Z,20.92
2019-01-12T08:59:42.042Z,21.40
2019-01-12T09:02:11.089Z,22.10
2019-01-12T09:04:43.492Z,21.82
2019-01-12T09:07:11.198Z,22.02
2019-01-12T09:09:40.389Z,22.60
2019-01-12T09:12:09.460Z,23.40
2019-01-12T09:14:38.752Z,21.80
2019-01-12T09:17:07.970Z,22.73
2019-01-12T09:19:37.072Z,22.85
2019-01-12T09:22:07.936Z,23.30
2019-01-12T09:24:37.140Z,23.15
2019-01-12T09:27:06.292Z,23.52
2019-01-12T09:29:35.426Z,22.95
2019-01-12T09:32:04.559Z,23.80
2019-01-12T09:35:30.699Z,23.10
2019-01-12T09:38:00.601Z,22.95
2019-01-12T09:40:33.014Z,22.75
2019-01-12T09:43:02.227Z,23.12
2019-01-12T09:45:34.615Z,22.52
2019-01-12T09:48:03.978Z,23.12
2019-01-12T09:50:34.742Z,23.07
2019-01-12T09:53:12.027Z,23.15
2019-01-12T09:55:40.884Z,22.62
2019-01-12T09:58:10.186Z,23.60
2019-01-12T10:00:39.284Z,22.50
2019-01-12T10:03:08.526Z,23.10
2019-01-12T10:05:37.599Z,22.55
2019-01-12T10:08:06.689Z,22.55
2019-01-12T10:10:35.852Z,23.70
2019-01-12T10:13:04.945Z,24.07
2019-01-12T10:15:37.331Z,23.92
2019-01-12T10:18:08.443Z,24.77
2019-01-12T10:20:37.285Z,24.32
2019-01-12T10:23:06.388Z,24.18
2019-01-12T10:25:35.473Z,23.35
2019-01-12T10:28:04.579Z,25.25
2019-01-12T10:30:33.690Z,24.12
2019-01-12T10:33:02.769Z,24.70
2019-01-12T10:35:31.934Z,23.92
2019-01-12T10:38:01.059Z,24.23
2019-01-12T10:40:30.210Z,25.50
2019-01-12T10:42:59.299Z,24.87
2019-01-12T10:45:28.470Z,24.77
2019-01-12T10:47:57.554Z,25.27
2019-01-12T10:50:31.959Z,26.52
2019-01-12T10:53:01.140Z,34.58
2019-01-12T10:55:30.218Z,26.82
2019-01-12T10:57:59.857Z,27.52
2019-01-12T11:00:32.331Z,27.82
2019-01-12T11:03:01.548Z,28.40
2019-01-12T11:05:30.782Z,29.02
2019-01-12T11:16:31.199Z,30.27
2019-01-12T11:19:33.735Z,28.10
2019-01-12T11:22:32.969Z,27.17
2019-01-12T11:25:32.418Z,26.65
2019-01-12T11:28:31.766Z,28.30
2019-01-12T11:31:34.491Z,26.75
2019-01-12T11:57:53.416Z,24.25
2019-01-12T12:00:27.575Z,26.03
2019-01-12T12:02:56.763Z,26.12
2019-01-12T12:05:25.886Z,25.80
2019-01-12T12:07:55.015Z,31.73
2019-01-12T12:10:24.102Z,31.10
2019-01-12T12:12:53.242Z,35.05
2019-01-12T12:15:23.187Z,30.77
2019-01-12T12:17:52.324Z,28.12
2019-01-12T12:20:23.732Z,27.00
2019-01-12T12:22:52.884Z,24.27
2019-01-12T12:25:22.024Z,25.63
2019-01-12T12:27:51.124Z,23.07
2019-01-12T12:30:22.585Z,24.52
2019-01-12T12:32:58.542Z,24.82
2019-01-12T12:35:27.759Z,23.52
2019-01-12T12:37:56.913Z,23.30
2019-01-12T12:40:26.250Z,23.57
2019-01-12T12:43:03.818Z,24.27
2019-01-12T12:46:07.599Z,22.95
2019-01-12T12:49:17.243Z,22.27
2019-01-12T12:52:13.162Z,22.90
2019-01-12T12:54:42.396Z,22.35
2019-01-12T12:57:11.607Z,21.65
2019-01-12T12:59:40.871Z,20.95
2019-01-12T13:02:10.030Z,22.17
2019-01-12T13:04:40.894Z,22.02
2019-01-12T13:07:10.162Z,20.88
2019-01-12T13:09:39.300Z,21.95
2019-01-12T13:12:08.715Z,21.90
2019-01-12T13:14:38.030Z,22.65
2019-01-12T13:17:07.223Z,23.52
2019-01-12T13:19:36.413Z,22.50
2019-01-12T13:22:05.715Z,23.07
2019-01-12T13:24:34.893Z,21.82
2019-01-12T13:27:42.163Z,19.62
2019-01-12T13:30:17.696Z,22.98
2019-01-12T13:32:49.327Z,20.50
2019-01-12T13:35:18.455Z,22.67
2019-01-12T13:37:47.624Z,23.30
2019-01-12T13:40:48.733Z,19.53
2019-01-12T13:44:06.665Z,16.17
2019-01-12T13:46:48.194Z,16.65
2019-01-12T13:49:17.364Z,15.95
2019-01-12T13:51:46.628Z,15.43
2019-01-12T13:54:15.839Z,15.25
2019-01-12T13:56:44.983Z,14.30
2019-01-12T13:59:15.314Z,15.78
2019-01-12T14:01:44.387Z,14.53
2019-01-12T14:04:13.551Z,14.43
2019-01-12T14:06:42.700Z,15.75
2019-01-12T14:09:11.806Z,16.00
2019-01-12T14:11:41.051Z,14.83
2019-01-12T14:14:10.179Z,16.67
2019-01-12T14:16:39.308Z,14.80
2019-01-12T14:19:08.395Z,14.40
2019-01-12T14:21:37.531Z,13.50
2019-01-12T14:24:06.627Z,13.25
2019-01-12T14:26:35.734Z,16.12
2019-01-12T14:29:04.851Z,15.90
2019-01-12T14:31:33.940Z,13.85
2019-01-12T14:34:03.061Z,12.33
2019-01-12T14:36:32.255Z,19.27
2019-01-12T14:39:01.347Z,13.70
2019-01-12T14:41:30.597Z,32.13
2019-01-12T14:43:59.738Z,12.85
2019-01-12T14:46:28.937Z,11.10
2019-01-12T14:48:58.079Z,11.45
2019-01-12T14:51:27.195Z,10.95
2019-01-12T14:53:56.294Z,11.22
2019-01-12T14:56:25.665Z,11.25
2019-01-12T14:58:54.860Z,10.58
2019-01-12T15:01:24.101Z,11.08
2019-01-12T15:03:53.197Z,12.53
2019-01-12T15:06:22.321Z,15.88
2019-01-12T15:08:51.410Z,13.75
2019-01-12T15:11:20.689Z,13.35
2019-01-12T15:13:49.875Z,14.13
2019-01-12T15:16:19.076Z,14.65
2019-01-12T15:18:48.216Z,11.48
2019-01-12T15:21:17.365Z,16.80
2019-01-12T15:23:46.479Z,14.38
2019-01-12T15:26:15.629Z,13.25
2019-01-12T15:28:44.701Z,12.23
2019-01-12T15:31:13.824Z,18.30
2019-01-12T15:33:42.973Z,14.95
2019-01-12T15:36:12.124Z,19.32
2019-01-12T15:38:41.249Z,22.82
2019-01-12T15:41:10.443Z,30.48
2019-01-12T15:43:39.605Z,18.20
2019-01-12T15:46:08.757Z,25.43
2019-01-12T15:48:37.837Z,17.00
2019-01-12T15:51:06.931Z,13.22
2019-01-12T15:53:36.092Z,13.85
2019-01-12T15:56:05.249Z,12.00
2019-01-12T15:58:34.397Z,11.57
2019-01-12T16:01:03.520Z,11.80
2019-01-12T16:03:32.607Z,12.98
2019-01-12T16:06:01.705Z,16.45
2019-01-12T16:08:30.845Z,13.60
2019-01-12T16:10:59.992Z,16.00
2019-01-12T16:13:29.123Z,12.58
2019-01-12T16:15:58.267Z,12.60
2019-01-12T16:18:27.415Z,11.30
2019-01-12T16:20:56.514Z,11.05
2019-01-12T16:23:25.695Z,11.33
2019-01-12T16:25:54.815Z,10.43
2019-01-12T16:28:23.941Z,11.38
2019-01-12T16:30:53.154Z,11.22
2019-01-12T16:33:22.382Z,10.98
2019-01-12T16:35:51.714Z,10.25
2019-01-12T16:38:20.897Z,12.05
2019-01-12T16:40:50.048Z,9.80
2019-01-12T16:43:19.174Z,9.33
2019-01-12T16:45:48.277Z,10.23
2019-01-12T16:48:17.376Z,8.58
2019-01-12T16:50:46.503Z,8.15
2019-01-12T16:53:15.587Z,10.85
2019-01-12T16:55:44.752Z,16.93
2019-01-12T16:58:13.954Z,13.85
2019-01-12T17:00:43.168Z,10.55
2019-01-12T17:03:12.329Z,10.48
2019-01-12T17:05:41.574Z,11.33
2019-01-12T17:08:10.724Z,9.88
2019-01-12T17:10:39.892Z,9.68
2019-01-12T17:13:08.971Z,10.70
2019-01-12T17:15:38.129Z,10.98
2019-01-12T17:18:07.218Z,13.25
2019-01-12T17:20:45.632Z,13.53
2019-01-12T17:23:14.800Z,10.68
2019-01-12T17:25:43.979Z,9.35
2019-01-12T17:28:23.029Z,8.73
2019-01-12T17:35:30.708Z,9.50
2019-01-12T17:38:27.279Z,8.70
2019-01-12T17:40:56.406Z,8.08
2019-01-12T17:43:25.554Z,6.35
2019-01-12T17:46:50.221Z,6.70
2019-01-12T17:49:19.399Z,6.80
2019-01-12T17:51:48.547Z,6.55
2019-01-12T17:54:18.960Z,6.45
2019-01-12T17:56:48.164Z,7.08
2019-01-12T17:59:17.444Z,7.10
2019-01-12T18:01:46.918Z,7.65
2019-01-12T18:04:16.095Z,7.80
2019-01-12T18:06:45.332Z,9.33
2019-01-12T18:09:14.598Z,9.10
2019-01-12T18:11:43.840Z,8.58
2019-01-12T18:14:12.979Z,8.10
2019-01-12T18:16:43.402Z,7.62
2019-01-12T18:19:13.054Z,10.75
2019-01-12T18:21:42.238Z,7.75
2019-01-12T18:24:11.432Z,7.58
2019-01-12T18:26:40.520Z,8.45
2019-01-12T18:29:09.683Z,7.47
2019-01-12T18:31:38.771Z,7.58
2019-01-12T18:34:07.907Z,7.40
2019-01-12T18:36:36.947Z,7.70
2019-01-12T18:39:08.180Z,7.47
2019-01-12T18:41:37.285Z,7.00
2019-01-12T18:44:06.528Z,7.45
2019-01-12T18:46:35.607Z,7.17
2019-01-12T18:49:05.009Z,7.58
2019-01-12T18:51:34.089Z,7.83
2019-01-12T18:54:03.306Z,8.35
2019-01-12T18:56:32.430Z,8.03
2019-01-12T18:59:01.604Z,8.58
2019-01-12T19:01:30.748Z,8.58
2019-01-12T19:03:59.851Z,9.18
2019-01-12T19:06:29.335Z,9.68
2019-01-12T19:08:58.467Z,9.45
2019-01-12T19:11:27.670Z,9.43
2019-01-12T19:13:56.808Z,9.68
2019-01-12T19:16:25.968Z,10.08
2019-01-12T19:18:55.058Z,9.63
2019-01-12T19:21:24.267Z,9.88
2019-01-12T19:23:53.358Z,9.65
2019-01-12T19:26:22.543Z,18.77
2019-01-12T19:28:51.699Z,11.65
2019-01-12T19:31:20.831Z,10.28
2019-01-12T19:33:50.033Z,9.60
2019-01-12T19:36:19.185Z,9.75
2019-01-12T19:38:48.287Z,9.50
2019-01-12T19:41:17.576Z,9.30
2019-01-12T19:43:46.669Z,7.60
2019-01-12T19:46:15.766Z,7.33
2019-01-12T19:48:44.885Z,7.58
2019-01-12T19:51:14.424Z,7.47
2019-01-12T19:53:43.561Z,6.92
2019-01-12T19:56:12.702Z,7.72
2019-01-12T19:58:41.856Z,7.97
2019-01-12T20:01:11.094Z,9.38
2019-01-12T20:03:40.253Z,37.15
2019-01-12T20:06:16.886Z,8.37
2019-01-12T20:08:40.280Z,9.75
2019-01-12T20:11:09.474Z,10.67
2019-01-12T20:17:06.606Z,12.82
2019-01-12T20:19:35.746Z,10.93
2019-01-12T20:22:04.810Z,10.30
2019-01-12T20:24:33.920Z,12.55
2019-01-12T20:27:03.054Z,11.25
2019-01-12T20:29:32.305Z,11.12
2019-01-12T20:32:14.483Z,10.50
2019-01-12T20:34:57.290Z,10.40
2019-01-12T20:38:06.573Z,9.98
2019-01-12T20:41:09.168Z,9.83
2019-01-12T20:44:10.911Z,9.40
2019-01-12T20:47:12.295Z,8.95
2019-01-12T20:50:34.509Z,7.85
2019-01-12T20:53:53.995Z,7.75
2019-01-12T20:57:19.553Z,7.95
2019-01-12T21:00:01.293Z,8.80
2019-01-12T21:03:20.402Z,8.10
2019-01-12T21:06:13.022Z,9.25
2019-01-12T21:09:28.273Z,9.33
2019-01-12T21:12:24.414Z,9.70
2019-01-12T21:15:04.870Z,11.12
2019-01-12T21:17:34.022Z,11.73
2019-01-12T21:20:03.135Z,12.73
2019-01-12T21:22:33.199Z,21.07
2019-01-12T21:25:03.357Z,11.65
2019-01-12T21:27:33.717Z,12.45
2019-01-12T21:30:08.595Z,13.10
2019-01-12T21:32:38.673Z,12.70
2019-01-12T21:35:10.258Z,12.47
2019-01-12T21:37:40.847Z,12.60
2019-01-12T21:40:11.184Z,12.23
2019-01-12T21:42:41.236Z,12.03
2019-01-12T21:45:12.569Z,11.68
2019-01-12T21:47:43.074Z,10.03
2019-01-12T21:50:17.077Z,11.37
2019-01-12T21:52:46.229Z,10.23
2019-01-12T21:55:15.338Z,10.97
2019-01-12T21:57:45.182Z,10.05
2019-01-12T22:00:16.029Z,10.48
2019-01-12T22:02:47.954Z,9.80
2019-01-12T22:05:20.135Z,10.60
2019-01-12T22:07:52.046Z,10.93
2019-01-12T22:10:21.153Z,10.93
2019-01-12T22:12:50.277Z,10.65
2019-01-12T22:15:19.457Z,11.10
2019-01-12T22:17:51.563Z,11.38
2019-01-12T22:20:20.720Z,12.10
2019-01-12T22:22:50.789Z,11.33
2019-01-12T22:25:21.097Z,11.07
2019-01-12T22:27:50.346Z,12.25
2019-01-12T22:30:19.503Z,11.73
2019-01-12T22:32:49.925Z,12.03
2019-01-12T22:35:19.992Z,11.50
2019-01-12T22:37:49.062Z,11.88
2019-01-12T22:40:19.391Z,11.63
2019-01-12T22:42:52.383Z,10.95
2019-01-12T22:45:21.475Z,12.30
2019-01-12T22:47:50.825Z,12.13
2019-01-12T22:50:20.010Z,11.80
2019-01-12T22:52:51.846Z,11.48
2019-01-12T22:55:21.008Z,12.90
2019-01-12T22:57:51.174Z,12.68
2019-01-12T23:00:45.257Z,13.05
2019-01-12T23:03:15.424Z,11.70
2019-01-12T23:05:44.714Z,11.65
2019-01-12T23:08:13.812Z,12.30
2019-01-12T23:10:42.959Z,12.10
2019-01-12T23:13:12.312Z,11.57
2019-01-12T23:15:41.366Z,11.45
2019-01-12T23:18:10.479Z,12.33
2019-01-12T23:20:39.556Z,12.15
2019-01-12T23:23:08.670Z,12.00
2019-01-12T23:25:37.899Z,12.07
2019-01-12T23:28:07.202Z,11.73
2019-01-12T23:30:36.427Z,11.80
2019-01-12T23:33:05.568Z,10.65
2019-01-12T23:35:34.688Z,12.58
2019-01-12T23:38:03.797Z,11.53
2019-01-12T23:40:32.994Z,12.73
2019-01-12T23:43:02.178Z,12.37
2019-01-12T23:45:31.377Z,12.63
2019-01-12T23:48:00.501Z,12.85
2019-01-12T23:50:29.613Z,13.13
2019-01-12T23:52:58.726Z,12.98
2019-01-12T23:55:27.843Z,12.93
2019-01-12T23:57:56.965Z,13.38
